Time;durP1;ratioP1;P1;durP2;ratioP2;P2;SDS_P1;SDS_P2;PMS_P1;PMS_P2;Temp;Humidity;BMP_temperature;BMP_pressure;BME280_temperature;BME280_humidity;BME280_pressure;Samples;Min_cycle;Max_cycle;Signal;HPM_P1;HPM_P2
2023/10/16 00:05:21;;;;;;;1.48;0.77;;;;;;;3.47;100.00;98943.88;15278723;19;20499;-49
2023/10/16 00:10:56;;;;;;;5.13;1.00;;;;;;;3.36;100.00;98941.06;15283307;19;20035;-56
2023/10/16 00:16:21;;;;;;;2.58;0.80;;;;;;;3.24;100.00;98940.94;15278235;19;20101;-49
2023/10/16 00:21:48;;;;;;;2.58;0.90;;;;;;;3.08;100.00;98941.09;15282942;19;20022;-47
2023/10/16 00:27:22;;;;;;;3.08;1.00;;;;;;;3.02;100.00;98943.31;15277549;19;20014;-47
2023/10/16 00:32:50;;;;;;;1.85;0.95;;;;;;;3.00;100.00;98940.72;15268145;19;20774;-52
2023/10/16 00:38:19;;;;;;;1.55;0.82;;;;;;;2.95;100.00;98932.22;15274173;19;20026;-52
2023/10/16 00:43:47;;;;;;;2.58;1.08;;;;;;;2.89;100.00;98937.91;15280921;19;20021;-49
2023/10/16 00:49:13;;;;;;;2.40;1.00;;;;;;;2.81;100.00;98935.78;15274906;19;20014;-47
2023/10/16 00:54:41;;;;;;;2.22;0.93;;;;;;;2.74;100.00;98924.66;15279899;19;20029;-54
2023/10/16 01:00:12;;;;;;;2.40;1.00;;;;;;;2.69;100.00;98921.44;15279419;19;20032;-48
2023/10/16 01:05:41;;;;;;;1.38;0.93;;;;;;;2.62;100.00;98931.63;15264985;19;20490;-54
2023/10/16 01:11:08;;;;;;;2.30;1.10;;;;;;;2.58;100.00;98923.94;15277768;19;20018;-49
2023/10/16 01:16:36;;;;;;;2.03;1.25;;;;;;;2.55;100.00;98921.47;15274343;19;20010;-48
2023/10/16 01:22:01;;;;;;;1.83;0.90;;;;;;;2.50;100.00;98911.13;15277636;19;20042;-51
2023/10/16 01:27:29;;;;;;;2.25;1.02;;;;;;;2.46;100.00;98920.28;15274646;19;20419;-49
2023/10/16 01:32:54;;;;;;;4.68;1.20;;;;;;;2.43;100.00;98926.63;15275991;19;20482;-55
2023/10/16 01:38:20;;;;;;;2.30;1.00;;;;;;;2.38;100.00;98925.19;15266259;19;20006;-50
2023/10/16 01:43:52;;;;;;;2.00;0.93;;;;;;;2.31;100.00;98924.72;15272358;19;20025;-53
2023/10/16 01:49:18;;;;;;;2.50;0.90;;;;;;;2.22;100.00;98920.88;15268187;19;20018;-50
2023/10/16 01:54:44;;;;;;;2.63;1.00;;;;;;;2.17;100.00;98924.75;15273586;19;20040;-48
2023/10/16 02:00:16;;;;;;;1.58;0.98;;;;;;;2.11;100.00;98929.50;15271990;19;20852;-54
2023/10/16 02:05:42;;;;;;;1.60;0.80;;;;;;;2.05;100.00;98916.59;15265409;19;20011;-47
2023/10/16 02:11:08;;;;;;;2.90;1.00;;;;;;;2.00;100.00;98921.34;15267292;19;20029;-51
2023/10/16 02:16:37;;;;;;;2.17;1.10;;;;;;;1.98;100.00;98936.50;15265578;19;20023;-52
2023/10/16 02:22:03;;;;;;;2.92;1.13;;;;;;;1.90;100.00;98930.81;15272575;19;20045;-52
2023/10/16 02:27:29;;;;;;;3.40;1.33;;;;;;;1.84;100.00;98943.53;15263845;19;20553;-52
2023/10/16 02:33:10;;;;;;;3.13;1.00;;;;;;;1.80;100.00;98941.16;15272029;19;20022;-53
2023/10/16 02:38:34;;;;;;;1.80;1.05;;;;;;;1.75;100.00;98936.13;15266296;19;20487;-51
2023/10/16 02:43:59;;;;;;;1.95;1.00;;;;;;;1.70;100.00;98951.50;15265294;19;20015;-52
2023/10/16 02:49:33;;;;;;;1.92;0.90;;;;;;;1.64;100.00;98944.75;15268844;19;20371;-55
2023/10/16 02:55:00;;;;;;;1.92;1.00;;;;;;;1.56;100.00;98941.66;15268594;19;20020;-52
2023/10/16 03:00:34;;;;;;;1.83;0.93;;;;;;;1.51;100.00;98944.59;15267494;19;20101;-54
2023/10/16 03:06:02;;;;;;;1.95;1.20;;;;;;;1.48;100.00;98941.28;15268989;19;20018;-49
2023/10/16 03:11:28;;;;;;;3.55;1.33;;;;;;;1.44;100.00;98940.63;15263445;19;20022;-54
2023/10/16 03:16:57;;;;;;;2.60;1.20;;;;;;;1.43;100.00;98944.22;15265725;19;20074;-50
2023/10/16 03:22:25;;;;;;;2.40;0.93;;;;;;;1.39;100.00;98937.34;15272262;19;20355;-50
2023/10/16 03:27:51;;;;;;;2.55;1.20;;;;;;;1.34;100.00;98932.31;15266878;19;20031;-51
2023/10/16 03:33:16;;;;;;;4.35;1.00;;;;;;;1.30;100.00;98935.25;15269745;19;20010;-53
2023/10/16 03:38:45;;;;;;;2.45;1.10;;;;;;;1.25;100.00;98932.00;15270756;19;20093;-51
2023/10/16 03:44:14;;;;;;;3.65;1.23;;;;;;;1.26;100.00;98923.09;15257739;19;20020;-51
2023/10/16 03:49:46;;;;;;;3.72;1.20;;;;;;;1.21;100.00;98929.53;15267644;19;20019;-50
2023/10/16 03:55:22;;;;;;;3.35;1.30;;;;;;;1.18;100.00;98924.41;15267424;19;20116;-50
2023/10/16 04:00:56;;;;;;;2.83;1.30;;;;;;;1.14;100.00;98920.22;15268155;19;20018;-52
2023/10/16 04:06:22;;;;;;;2.92;1.40;;;;;;;1.13;100.00;98929.13;15262032;19;20018;-53
2023/10/16 04:11:54;;;;;;;5.07;1.35;;;;;;;1.13;100.00;98934.41;15281975;19;20388;-52
2023/10/16 04:17:19;;;;;;;2.42;1.20;;;;;;;1.07;100.00;98929.47;15267730;19;20022;-52
2023/10/16 04:22:49;;;;;;;2.35;1.02;;;;;;;1.03;100.00;98933.25;15283524;19;20105;-51
2023/10/16 04:28:18;;;;;;;4.63;1.58;;;;;;;1.01;100.00;98928.03;15274988;19;20353;-48
2023/10/16 04:33:53;;;;;;;3.53;1.50;;;;;;;1.06;100.00;98933.09;15274582;19;20811;-53
2023/10/16 04:40:28;;;;;;;3.58;1.60;;;;;;;1.11;100.00;98922.19;15279288;19;20019;-52
2023/10/16 04:51:01;;;;;;;3.88;1.60;;;;;;;1.11;100.00;98944.28;15260445;19;20026;-51
2023/10/16 04:57:37;;;;;;;5.25;1.60;;;;;;;1.18;100.00;98939.47;15275430;19;20074;-52
2023/10/16 05:02:52;;;;;;;3.40;1.70;;;;;;;1.30;100.00;98940.56;15280918;19;20363;-48
2023/10/16 05:14:19;;;;;;;4.47;1.73;;;;;;;1.47;100.00;98932.44;15278715;19;20479;-49
2023/10/16 05:19:53;;;;;;;2.13;1.60;;;;;;;1.54;100.00;98947.09;15272793;19;20503;-49
2023/10/16 06:16:20;;;;;;;3.38;1.35;;;;;;;2.13;100.00;98950.66;15297729;19;20031;-54
2023/10/16 06:21:48;;;;;;;2.97;1.42;;;;;;;2.22;100.00;98965.19;15281870;19;20089;-53
2023/10/16 06:27:19;;;;;;;3.97;1.55;;;;;;;2.31;100.00;98968.13;15261878;19;20012;-52
2023/10/16 06:32:44;;;;;;;3.90;1.30;;;;;;;2.44;100.00;98970.03;15275416;19;20010;-49
2023/10/16 06:38:11;;;;;;;4.20;1.30;;;;;;;2.58;100.00;98967.38;15272351;19;20560;-48
2023/10/16 06:43:38;;;;;;;2.38;1.08;;;;;;;2.72;100.00;98963.81;15271712;19;20018;-49
2023/10/16 06:49:08;;;;;;;3.33;1.45;;;;;;;2.84;100.00;98966.66;15271398;19;20014;-51
2023/10/16 06:54:37;;;;;;;2.25;1.20;;;;;;;2.90;100.00;98959.13;15272831;19;20027;-50
2023/10/16 07:00:22;;;;;;;2.17;1.08;;;;;;;2.95;100.00;98969.47;15260937;19;20221;-50
2023/10/16 07:05:48;;;;;;;3.40;1.20;;;;;;;2.97;100.00;98958.72;15270134;19;20010;-51
2023/10/16 07:11:18;;;;;;;3.40;1.17;;;;;;;3.00;100.00;98962.03;15269167;19;20024;-49
2023/10/16 07:16:46;;;;;;;3.55;1.23;;;;;;;3.07;100.00;98966.00;15267739;19;20036;-52
2023/10/16 07:22:11;;;;;;;6.70;1.40;;;;;;;3.15;100.00;98954.88;15272510;19;20018;-53
2023/10/16 07:27:36;;;;;;;3.47;1.50;;;;;;;3.24;100.00;98958.69;15266640;19;20018;-50
2023/10/16 07:33:04;;;;;;;5.65;1.60;;;;;;;3.37;100.00;98962.25;15263035;19;20014;-49
2023/10/16 07:38:31;;;;;;;2.95;1.30;;;;;;;3.50;100.00;98964.09;15269975;19;20019;-51
2023/10/16 07:44:04;;;;;;;4.25;1.30;;;;;;;3.67;100.00;98971.84;15280574;19;20086;-53
2023/10/16 07:49:31;;;;;;;6.05;1.70;;;;;;;3.80;100.00;98971.84;15282687;19;20018;-53
2023/10/16 07:54:56;;;;;;;3.33;1.70;;;;;;;3.97;100.00;98970.69;15283342;19;20438;-50
2023/10/16 08:00:25;;;;;;;3.33;1.85;;;;;;;4.13;100.00;98972.31;15279806;19;20019;-49
2023/10/16 08:05:53;;;;;;;4.55;1.23;;;;;;;4.30;100.00;98969.28;15275615;19;20025;-48
2023/10/16 08:11:25;;;;;;;3.70;1.67;;;;;;;4.44;100.00;98964.78;15279783;19;20018;-48
2023/10/16 08:16:58;;;;;;;2.88;1.50;;;;;;;4.51;100.00;98968.75;15278742;19;20031;-51
2023/10/16 08:22:26;;;;;;;8.15;2.60;;;;;;;4.65;100.00;98959.75;15282738;19;20026;-48
2023/10/16 08:27:51;;;;;;;4.78;2.30;;;;;;;4.81;100.00;98962.16;15277126;19;20027;-49
2023/10/16 08:33:16;;;;;;;6.60;2.55;;;;;;;4.98;100.00;98952.91;15279889;19;20017;-50
2023/10/16 08:38:51;;;;;;;4.88;1.55;;;;;;;5.21;100.00;98948.56;15276358;19;20029;-50
2023/10/16 08:44:17;;;;;;;3.70;1.23;;;;;;;5.48;100.00;98949.28;15281450;19;20010;-50
2023/10/16 08:49:52;;;;;;;3.80;1.20;;;;;;;5.72;100.00;98943.88;15278599;19;20479;-51
2023/10/16 08:55:26;;;;;;;3.63;1.20;;;;;;;6.00;100.00;98944.47;15277888;19;20369;-50
2023/10/16 09:00:52;;;;;;;5.55;1.45;;;;;;;6.14;100.00;98954.94;15280358;19;20038;-49
2023/10/16 09:06:17;;;;;;;5.40;1.05;;;;;;;6.31;100.00;98947.41;15267521;19;20018;-51
2023/10/16 09:11:47;;;;;;;3.42;1.15;;;;;;;6.47;100.00;98945.22;15275528;19;20055;-50
2023/10/16 09:17:11;;;;;;;4.35;1.17;;;;;;;6.59;100.00;98951.41;15275161;19;20082;-52
2023/10/16 09:22:39;;;;;;;3.55;1.20;;;;;;;6.75;100.00;98951.06;15279996;19;20015;-52
2023/10/16 09:28:06;;;;;;;3.05;1.02;;;;;;;6.95;100.00;98943.22;15273702;19;20077;-50
2023/10/16 09:33:35;;;;;;;3.22;1.15;;;;;;;7.13;100.00;98948.03;15280428;19;20363;-49
2023/10/16 09:39:00;;;;;;;4.15;1.30;;;;;;;7.30;100.00;98943.94;15268119;19;20042;-49
2023/10/16 09:44:36;;;;;;;2.40;0.90;;;;;;;7.59;100.00;98938.00;15275902;19;20014;-53
2023/10/16 09:50:16;;;;;;;2.20;1.10;;;;;;;7.70;100.00;98940.63;15275818;19;20420;-53
2023/10/16 09:55:44;;;;;;;2.25;0.80;;;;;;;7.84;100.00;98936.75;15276699;19;20020;-49
2023/10/16 10:01:23;;;;;;;4.95;1.00;;;;;;;7.99;100.00;98938.13;15276524;19;20544;-49
2023/10/16 10:06:53;;;;;;;3.45;0.90;;;;;;;8.20;100.00;98934.56;15272522;19;20025;-53
2023/10/16 10:12:42;;;;;;;2.38;0.85;;;;;;;8.36;100.00;98925.16;15262953;19;20038;-52
2023/10/16 10:23:50;;;;;;;1.83;0.70;;;;;;;8.70;100.00;98927.59;15273788;19;20018;-53
2023/10/16 10:29:16;;;;;;;3.30;0.80;;;;;;;8.91;100.00;98922.13;15273684;19;20006;-49
2023/10/16 10:34:45;;;;;;;1.52;0.40;;;;;;;9.02;100.00;98916.63;15273916;19;20371;-51
2023/10/16 10:40:21;;;;;;;1.40;0.60;;;;;;;9.13;100.00;98910.25;15276254;19;20037;-49
2023/10/16 10:45:46;;;;;;;1.00;0.45;;;;;;;9.17;100.00;98903.63;15262721;19;20007;-49
2023/10/16 10:51:16;;;;;;;1.33;0.50;;;;;;;9.11;100.00;98898.81;15269719;19;20560;-50
2023/10/16 10:56:48;;;;;;;2.08;0.63;;;;;;;9.16;100.00;98888.47;15269524;19;20485;-49
2023/10/16 11:02:48;;;;;;;2.58;0.60;;;;;;;9.29;100.00;98890.03;15278328;19;20022;-50
2023/10/16 11:08:25;;;;;;;1.73;0.60;;;;;;;9.52;100.00;98875.31;15266015;19;20066;-51
2023/10/16 11:13:53;;;;;;;1.73;0.60;;;;;;;9.64;100.00;98877.84;15268398;19;20081;-50
2023/10/16 11:19:28;;;;;;;1.17;0.50;;;;;;;9.73;100.00;98866.22;15259722;19;20018;-51
2023/10/16 11:24:56;;;;;;;1.50;0.47;;;;;;;9.77;100.00;98859.56;15269826;19;20021;-52
2023/10/16 11:30:26;;;;;;;1.60;0.50;;;;;;;9.70;100.00;98861.97;15268980;19;20024;-49
2023/10/16 11:35:54;;;;;;;1.87;0.50;;;;;;;9.59;100.00;98854.06;15268109;19;20011;-49
2023/10/16 11:41:26;;;;;;;3.03;0.63;;;;;;;9.56;100.00;98854.34;15271273;19;20023;-51
2023/10/16 11:46:52;;;;;;;1.45;0.60;;;;;;;9.60;100.00;98846.84;15262250;19;20021;-54
2023/10/16 11:52:23;;;;;;;2.42;0.60;;;;;;;9.73;100.00;98833.91;15266825;19;20023;-50
2023/10/16 11:57:52;;;;;;;1.63;0.60;;;;;;;9.95;100.00;98842.63;15265387;19;20045;-51
2023/10/16 12:03:17;;;;;;;1.73;0.45;;;;;;;10.02;100.00;98844.59;15271521;19;20007;-49
2023/10/16 12:08:44;;;;;;;1.40;0.60;;;;;;;9.89;100.00;98838.69;15267676;19;20018;-52
2023/10/16 12:14:13;;;;;;;1.65;0.60;;;;;;;9.77;100.00;98831.78;15267692;19;20073;-53
2023/10/16 12:19:38;;;;;;;2.00;0.70;;;;;;;9.63;100.00;98827.72;15259393;19;20938;-51
2023/10/16 12:25:08;;;;;;;1.33;0.50;;;;;;;9.58;100.00;98830.00;15264738;19;20090;-50
2023/10/16 12:30:36;;;;;;;1.85;0.68;;;;;;;9.67;100.00;98834.53;15278025;19;20014;-50
2023/10/16 12:36:07;;;;;;;2.03;0.50;;;;;;;9.98;100.00;98820.81;15279144;19;20022;-51
2023/10/16 12:41:33;;;;;;;2.28;0.45;;;;;;;10.32;100.00;98831.88;15282772;19;20010;-53
2023/10/16 12:47:00;;;;;;;4.40;0.73;;;;;;;10.57;100.00;98829.50;15276422;19;20078;-49
2023/10/16 12:52:31;;;;;;;1.17;0.50;;;;;;;10.66;100.00;98829.59;15266064;19;20376;-50
2023/10/16 12:57:57;;;;;;;2.13;0.70;;;;;;;10.46;100.00;98833.25;15274008;19;20073;-52
2023/10/16 13:03:26;;;;;;;1.67;0.50;;;;;;;10.36;100.00;98824.34;15281434;19;20037;-50
2023/10/16 13:08:51;;;;;;;1.95;0.60;;;;;;;10.36;100.00;98828.84;15278990;19;20022;-54
2023/10/16 13:14:17;;;;;;;1.65;0.60;;;;;;;10.35;100.00;98819.09;15275133;19;20026;-51
2023/10/16 13:19:47;;;;;;;0.82;0.40;;;;;;;10.29;100.00;98813.31;15273465;19;20467;-51
2023/10/16 13:25:13;;;;;;;2.67;0.60;;;;;;;10.15;100.00;98808.41;15262537;19;20028;-51
2023/10/16 13:30:38;;;;;;;7.43;0.70;;;;;;;10.12;100.00;98811.41;15275351;19;20026;-49
2023/10/16 13:36:05;;;;;;;1.85;0.55;;;;;;;10.25;100.00;98811.06;15275331;19;20070;-52
2023/10/16 13:41:34;;;;;;;2.67;0.50;;;;;;;10.36;100.00;98804.63;15276341;19;20073;-53
2023/10/16 13:47:02;;;;;;;1.48;0.50;;;;;;;10.50;100.00;98797.91;15273239;19;20014;-50
2023/10/16 13:52:29;;;;;;;2.88;0.60;;;;;;;10.90;100.00;98791.22;15273500;19;20010;-51
2023/10/16 13:57:55;;;;;;;1.48;0.40;;;;;;;10.82;100.00;98785.78;15261690;19;20090;-53
2023/10/16 14:03:21;;;;;;;1.88;0.50;;;;;;;10.59;100.00;98784.38;15272389;19;20014;-51
2023/10/16 14:08:49;;;;;;;1.38;0.50;;;;;;;10.33;100.00;98786.91;15273898;19;20042;-51
2023/10/16 14:14:18;;;;;;;1.08;0.50;;;;;;;10.07;100.00;98790.31;15274053;19;20021;-52
2023/10/16 14:19:47;;;;;;;1.52;0.50;;;;;;;9.94;100.00;98787.97;15274262;19;20038;-49
2023/10/16 14:25:17;;;;;;;1.08;0.45;;;;;;;9.79;100.00;98789.44;15271371;19;20070;-50
2023/10/16 14:30:42;;;;;;;1.10;0.50;;;;;;;9.71;100.00;98790.16;15257523;19;20011;-49
2023/10/16 14:36:15;;;;;;;2.17;0.60;;;;;;;9.65;100.00;98780.00;15268895;19;20038;-48
2023/10/16 14:41:44;;;;;;;0.98;0.50;;;;;;;9.60;100.00;98771.50;15269983;19;20478;-52
2023/10/16 14:47:15;;;;;;;1.52;0.60;;;;;;;9.58;100.00;98776.22;15266790;19;20082;-52
2023/10/16 14:52:41;;;;;;;1.90;0.60;;;;;;;9.60;100.00;98775.06;15258140;19;20029;-51
2023/10/16 14:58:10;;;;;;;1.35;0.35;;;;;;;9.64;100.00;98781.00;15255611;19;20506;-51
2023/10/16 15:03:40;;;;;;;1.83;0.60;;;;;;;9.62;100.00;98767.69;15249801;19;20033;-53
2023/10/16 15:09:09;;;;;;;1.15;0.40;;;;;;;9.51;100.00;98766.03;15259908;19;20517;-54
2023/10/16 15:14:36;;;;;;;1.10;0.40;;;;;;;9.45;100.00;98774.69;15261009;19;20011;-51
2023/10/16 15:20:03;;;;;;;3.53;0.73;;;;;;;9.40;100.00;98776.97;15259340;19;20776;-53
2023/10/16 15:25:27;;;;;;;1.50;0.40;;;;;;;9.36;100.00;98778.22;15256988;19;20039;-51
2023/10/16 15:30:57;;;;;;;2.25;0.30;;;;;;;9.30;100.00;98781.50;15258386;19;20631;-53
2023/10/16 15:36:21;;;;;;;2.40;0.40;;;;;;;9.23;100.00;98774.00;15247147;19;20033;-51
2023/10/16 15:41:47;;;;;;;2.08;0.43;;;;;;;9.14;100.00;98777.56;15258681;19;20018;-52
2023/10/16 15:47:14;;;;;;;2.15;0.50;;;;;;;9.08;100.00;98776.28;15254275;19;20013;-54
2023/10/16 15:52:39;;;;;;;1.95;0.60;;;;;;;9.02;100.00;98778.69;15257240;19;20019;-51
2023/10/16 15:58:04;;;;;;;3.35;0.60;;;;;;;8.96;100.00;98774.75;15253407;19;20019;-51
2023/10/16 16:03:33;;;;;;;3.58;0.50;;;;;;;8.88;100.00;98780.81;15265063;19;20017;-50
2023/10/16 16:08:59;;;;;;;1.35;0.50;;;;;;;8.82;100.00;98775.19;15262166;19;20273;-49
2023/10/16 16:14:24;;;;;;;2.90;0.52;;;;;;;8.73;100.00;98776.88;15265521;19;20020;-52
2023/10/16 16:19:52;;;;;;;3.63;1.02;;;;;;;8.62;100.00;98786.78;15267845;19;20014;-52
2023/10/16 16:25:18;;;;;;;1.95;0.57;;;;;;;8.54;100.00;98783.09;15271034;19;20014;-52
2023/10/16 16:30:42;;;;;;;1.33;0.47;;;;;;;8.39;100.00;98790.66;15269126;19;20032;-53
2023/10/16 16:36:11;;;;;;;1.40;0.60;;;;;;;8.26;100.00;98797.13;15268204;19;21147;-53
2023/10/16 16:41:38;;;;;;;2.17;0.70;;;;;;;8.15;100.00;98794.56;15262737;19;21315;-51
2023/10/16 16:47:04;;;;;;;1.70;0.70;;;;;;;8.08;100.00;98804.13;15266498;19;20640;-53
2023/10/16 16:52:38;;;;;;;1.58;0.75;;;;;;;8.00;100.00;98805.66;15267505;19;20078;-53
2023/10/16 16:58:04;;;;;;;1.17;0.60;;;;;;;7.90;100.00;98802.09;15262539;19;20735;-54
2023/10/16 17:03:30;;;;;;;1.17;0.60;;;;;;;7.81;100.00;98813.63;15248092;19;20479;-51
2023/10/16 17:08:58;;;;;;;11.52;0.90;;;;;;;7.74;100.00;98804.41;15265192;19;21319;-52
2023/10/16 17:14:25;;;;;;;1.40;0.52;;;;;;;7.67;100.00;98815.69;15259745;19;20033;-49
2023/10/16 17:19:54;;;;;;;1.80;0.75;;;;;;;7.61;100.00;98818.03;15270075;19;20018;-51
2023/10/16 17:25:21;;;;;;;1.50;0.80;;;;;;;7.52;100.00;98819.69;15264403;19;20029;-52
2023/10/16 17:30:47;;;;;;;1.45;0.68;;;;;;;7.38;100.00;98818.19;15268143;19;20015;-48
2023/10/16 17:36:13;;;;;;;1.30;0.80;;;;;;;7.15;100.00;98831.72;15264732;19;20018;-50
2023/10/16 17:41:41;;;;;;;3.80;1.00;;;;;;;7.06;100.00;98829.78;15258696;19;20372;-53
2023/10/16 17:47:05;;;;;;;1.77;1.00;;;;;;;7.02;100.00;98834.56;15261423;19;20011;-48
2023/10/16 17:52:33;;;;;;;2.88;0.90;;;;;;;6.94;100.00;98829.00;15262971;19;20102;-52
2023/10/16 17:58:03;;;;;;;3.35;0.90;;;;;;;6.89;100.00;98828.53;15261956;19;20086;-48
2023/10/16 18:03:29;;;;;;;1.60;0.80;;;;;;;6.82;100.00;98838.88;15266030;19;21019;-54
2023/10/16 18:08:53;;;;;;;1.23;0.80;;;;;;;6.77;100.00;98843.78;15263976;19;20011;-51
2023/10/16 18:14:22;;;;;;;1.98;0.98;;;;;;;6.73;100.00;98840.53;15253360;19;20014;-53
2023/10/16 18:19:46;;;;;;;4.57;1.10;;;;;;;6.69;100.00;98839.06;15263303;19;20006;-51
2023/10/16 18:25:12;;;;;;;2.47;0.98;;;;;;;6.63;100.00;98842.25;15260606;19;20020;-49
2023/10/16 18:30:39;;;;;;;1.70;0.90;;;;;;;6.53;100.00;98841.28;15263389;19;20035;-52
2023/10/16 18:36:04;;;;;;;1.20;0.70;;;;;;;6.45;100.00;98841.94;15259670;19;20014;-51
2023/10/16 18:41:28;;;;;;;2.08;1.00;;;;;;;6.41;100.00;98846.66;15264684;19;20014;-50
2023/10/16 18:46:57;;;;;;;3.20;1.00;;;;;;;6.39;100.00;98847.78;15247972;19;20006;-49
2023/10/16 18:52:28;;;;;;;1.73;1.00;;;;;;;6.36;100.00;98848.88;15255705;19;20597;-50
2023/10/16 18:57:56;;;;;;;1.88;0.93;;;;;;;6.31;100.00;98846.56;15280466;19;20042;-52
2023/10/16 19:03:25;;;;;;;1.92;0.88;;;;;;;6.29;100.00;98847.69;15268986;19;20475;-52
2023/10/16 19:08:53;;;;;;;1.50;0.90;;;;;;;6.29;100.00;98853.03;15270110;19;20077;-54
2023/10/16 19:14:18;;;;;;;2.20;1.00;;;;;;;6.26;100.00;98858.63;15266333;19;20018;-51
2023/10/16 19:19:46;;;;;;;3.65;0.80;;;;;;;6.16;100.00;98846.00;15255754;19;20527;-51
2023/10/16 19:25:11;;;;;;;1.60;0.90;;;;;;;6.08;100.00;98853.75;15265953;19;20017;-51
2023/10/16 19:30:38;;;;;;;1.25;0.80;;;;;;;6.02;100.00;98851.56;15269043;19;20097;-49
2023/10/16 19:36:09;;;;;;;2.13;0.90;;;;;;;5.99;100.00;98855.34;15266347;19;20030;-51
2023/10/16 19:41:35;;;;;;;3.00;0.90;;;;;;;6.00;100.00;98856.19;15281617;19;20506;-50
2023/10/16 19:46:59;;;;;;;1.27;0.80;;;;;;;5.83;100.00;98861.00;15278235;19;20097;-49
2023/10/16 19:52:27;;;;;;;2.05;1.00;;;;;;;5.72;100.00;98861.00;15269304;19;20018;-48
2023/10/16 19:57:53;;;;;;;1.52;1.02;;;;;;;5.64;100.00;98863.41;15277520;19;20018;-48
2023/10/16 20:03:18;;;;;;;2.67;1.08;;;;;;;5.52;100.00;98868.75;15283532;19;20046;-49
2023/10/16 20:08:45;;;;;;;2.47;1.10;;;;;;;5.43;100.00;98877.47;15282622;19;20014;-52
2023/10/16 20:14:10;;;;;;;2.60;1.10;;;;;;;5.34;100.00;98876.34;15280327;19;20017;-51
2023/10/16 20:19:34;;;;;;;3.72;1.60;;;;;;;5.25;100.00;98880.56;15280693;19;20010;-50
2023/10/16 20:25:03;;;;;;;4.88;2.13;;;;;;;5.13;100.00;98878.81;15269008;19;20014;-52
2023/10/16 20:30:27;;;;;;;3.90;1.50;;;;;;;5.05;100.00;98878.53;15281093;19;20025;-52
2023/10/16 20:35:53;;;;;;;2.53;1.40;;;;;;;5.01;100.00;98875.25;15274550;19;20010;-51
2023/10/16 20:41:21;;;;;;;4.03;1.42;;;;;;;5.02;100.00;98878.78;15282770;19;20024;-52
2023/10/16 20:46:46;;;;;;;2.50;1.40;;;;;;;4.99;100.00;98879.03;15277146;19;20102;-53
2023/10/16 20:52:17;;;;;;;2.35;1.40;;;;;;;4.96;100.00;98877.41;15279377;19;20074;-52
2023/10/16 20:57:46;;;;;;;2.93;1.17;;;;;;;4.86;100.00;98879.94;15263040;19;20022;-51
2023/10/16 21:03:10;;;;;;;3.13;1.10;;;;;;;4.74;100.00;98881.66;15280550;19;20339;-53
2023/10/16 21:08:36;;;;;;;2.75;1.20;;;;;;;4.67;100.00;98874.22;15279643;19;20034;-52
2023/10/16 21:14:05;;;;;;;4.15;1.50;;;;;;;4.67;100.00;98875.09;15276217;19;20022;-51
2023/10/16 21:19:30;;;;;;;2.78;1.20;;;;;;;4.66;100.00;98878.72;15276734;19;20035;-51
2023/10/16 21:24:54;;;;;;;2.90;1.20;;;;;;;4.59;100.00;98872.97;15275909;19;20328;-51
2023/10/16 21:30:24;;;;;;;3.00;1.35;;;;;;;4.52;100.00;98882.41;15293434;19;20488;-53
2023/10/16 21:35:49;;;;;;;3.00;1.30;;;;;;;4.48;100.00;98891.59;15277732;19;20099;-50
2023/10/16 21:41:14;;;;;;;2.05;1.17;;;;;;;4.39;100.00;98890.44;15276984;19;20245;-48
2023/10/16 21:46:43;;;;;;;4.30;1.50;;;;;;;4.38;100.00;98896.72;15272568;19;20028;-50
2023/10/16 21:52:14;;;;;;;2.63;1.45;;;;;;;4.41;100.00;98901.00;15275345;19;20022;-49
2023/10/16 21:57:39;;;;;;;3.10;1.53;;;;;;;4.43;100.00;98905.25;15271055;19;20018;-51
2023/10/16 22:03:06;;;;;;;3.65;1.40;;;;;;;4.46;100.00;98909.50;15261831;19;20834;-48
2023/10/16 22:08:33;;;;;;;2.65;1.45;;;;;;;4.41;100.00;98906.34;15268863;19;20479;-49
2023/10/16 22:13:58;;;;;;;3.78;1.30;;;;;;;4.34;100.00;98899.72;15273903;19;20037;-51
2023/10/16 22:19:29;;;;;;;2.85;1.27;;;;;;;4.24;100.00;98895.06;15272024;19;20014;-53
2023/10/16 22:24:58;;;;;;;3.03;1.60;;;;;;;4.18;100.00;98890.13;15272459;19;20045;-48
2023/10/16 22:30:24;;;;;;;2.25;1.50;;;;;;;4.15;100.00;98880.56;15273513;19;20046;-51
2023/10/16 22:35:51;;;;;;;2.42;1.45;;;;;;;4.13;100.00;98879.81;15258228;19;20014;-49
2023/10/16 22:41:16;;;;;;;1.85;1.40;;;;;;;4.11;100.00;98873.75;15273492;19;20024;-49
2023/10/16 22:46:47;;;;;;;2.47;1.60;;;;;;;4.07;100.00;98874.06;15269703;19;20018;-49
2023/10/16 22:52:17;;;;;;;3.17;1.58;;;;;;;4.08;100.00;98878.44;15268510;19;20438;-49
2023/10/16 22:57:41;;;;;;;3.47;1.80;;;;;;;4.05;100.00;98882.16;15265810;19;20023;-48
2023/10/16 23:03:07;;;;;;;2.75;1.40;;;;;;;4.04;100.00;98872.47;15271920;19;20035;-49
2023/10/16 23:08:38;;;;;;;3.92;1.50;;;;;;;4.01;100.00;98864.69;15256216;19;20455;-49
2023/10/16 23:14:03;;;;;;;2.30;1.87;;;;;;;3.97;100.00;98861.38;15267143;19;20480;-49
2023/10/16 23:19:27;;;;;;;3.03;1.60;;;;;;;3.96;100.00;98859.66;15268667;19;20071;-50
2023/10/16 23:24:56;;;;;;;2.72;1.60;;;;;;;3.91;100.00;98861.81;15270124;19;20078;-50
2023/10/16 23:30:24;;;;;;;3.25;1.50;;;;;;;3.82;100.00;98852.66;15269659;19;20014;-52
2023/10/16 23:35:58;;;;;;;4.10;2.00;;;;;;;3.78;100.00;98860.97;15264508;19;20019;-51
2023/10/16 23:41:40;;;;;;;3.60;1.70;;;;;;;3.72;100.00;98861.38;15270144;19;20014;-52
2023/10/16 23:47:11;;;;;;;4.65;1.80;;;;;;;3.70;100.00;98859.69;15264732;19;20054;-52
2023/10/16 23:52:56;;;;;;;3.13;1.60;;;;;;;3.68;100.00;98874.94;15266636;19;20015;-51
2023/10/16 23:58:25;;;;;;;2.42;1.70;;;;;;;3.69;100.00;98859.81;15264412;19;20290;-50
